sensor_id;sensor_type;location;lat;lon;timestamp;P1;durP1;ratioP1;P2;durP2;ratioP2
7669;SDS011;3877;42.562;27.636;2024-03-29T00:01:03;55.70;;;13.35;;
7669;SDS011;3877;42.562;27.636;2024-03-29T00:03:30;53.28;;;13.48;;
7669;SDS011;3877;42.562;27.636;2024-03-29T00:05:57;70.40;;;12.43;;
7669;SDS011;3877;42.562;27.636;2024-03-29T00:08:23;65.95;;;11.60;;
7669;SDS011;3877;42.562;27.636;2024-03-29T00:10:49;58.90;;;11.70;;
7669;SDS011;3877;42.562;27.636;2024-03-29T00:13:15;59.35;;;10.70;;
7669;SDS011;3877;42.562;27.636;2024-03-29T00:15:42;55.63;;;11.35;;
7669;SDS011;3877;42.562;27.636;2024-03-29T00:18:10;57.10;;;11.45;;
7669;SDS011;3877;42.562;27.636;2024-03-29T00:20:38;61.72;;;11.35;;
7669;SDS011;3877;42.562;27.636;2024-03-29T00:23:04;58.90;;;11.82;;
7669;SDS011;3877;42.562;27.636;2024-03-29T00:25:31;63.78;;;11.35;;
7669;SDS011;3877;42.562;27.636;2024-03-29T00:27:57;55.92;;;11.00;;
7669;SDS011;3877;42.562;27.636;2024-03-29T00:30:23;63.83;;;11.07;;
7669;SDS011;3877;42.562;27.636;2024-03-29T00:32:52;62.97;;;10.57;;
7669;SDS011;3877;42.562;27.636;2024-03-29T00:35:19;72.75;;;11.70;;
7669;SDS011;3877;42.562;27.636;2024-03-29T00:37:46;60.80;;;11.02;;
7669;SDS011;3877;42.562;27.636;2024-03-29T00:40:13;51.60;;;10.65;;
7669;SDS011;3877;42.562;27.636;2024-03-29T00:42:39;67.60;;;11.77;;
7669;SDS011;3877;42.562;27.636;2024-03-29T00:45:05;54.92;;;10.35;;
7669;SDS011;3877;42.562;27.636;2024-03-29T00:47:33;73.53;;;10.93;;
7669;SDS011;3877;42.562;27.636;2024-03-29T00:50:00;52.42;;;10.70;;
7669;SDS011;3877;42.562;27.636;2024-03-29T00:52:26;47.85;;;9.85;;
7669;SDS011;3877;42.562;27.636;2024-03-29T00:54:54;64.25;;;11.07;;
7669;SDS011;3877;42.562;27.636;2024-03-29T00:57:20;66.97;;;11.07;;
7669;SDS011;3877;42.562;27.636;2024-03-29T00:59:47;49.33;;;10.52;;
7669;SDS011;3877;42.562;27.636;2024-03-29T01:02:13;64.75;;;11.32;;
7669;SDS011;3877;42.562;27.636;2024-03-29T01:04:39;68.05;;;10.65;;
7669;SDS011;3877;42.562;27.636;2024-03-29T01:07:07;63.17;;;11.20;;
7669;SDS011;3877;42.562;27.636;2024-03-29T01:09:33;51.60;;;11.35;;
7669;SDS011;3877;42.562;27.636;2024-03-29T01:12:01;45.92;;;9.75;;
7669;SDS011;3877;42.562;27.636;2024-03-29T01:14:27;45.53;;;10.25;;
7669;SDS011;3877;42.562;27.636;2024-03-29T01:16:54;59.17;;;10.65;;
7669;SDS011;3877;42.562;27.636;2024-03-29T01:19:20;64.20;;;10.83;;
7669;SDS011;3877;42.562;27.636;2024-03-29T01:21:47;62.33;;;11.50;;
7669;SDS011;3877;42.562;27.636;2024-03-29T01:24:14;56.03;;;11.23;;
7669;SDS011;3877;42.562;27.636;2024-03-29T01:26:40;64.28;;;11.48;;
7669;SDS011;3877;42.562;27.636;2024-03-29T01:29:07;67.20;;;13.33;;
7669;SDS011;3877;42.562;27.636;2024-03-29T01:31:34;62.17;;;11.60;;
7669;SDS011;3877;42.562;27.636;2024-03-29T01:34:00;62.83;;;11.68;;
7669;SDS011;3877;42.562;27.636;2024-03-29T01:36:26;59.55;;;11.45;;
7669;SDS011;3877;42.562;27.636;2024-03-29T01:38:53;63.80;;;11.53;;
7669;SDS011;3877;42.562;27.636;2024-03-29T01:41:20;63.53;;;12.27;;
7669;SDS011;3877;42.562;27.636;2024-03-29T01:43:46;59.15;;;11.80;;
7669;SDS011;3877;42.562;27.636;2024-03-29T01:46:15;62.50;;;12.15;;
7669;SDS011;3877;42.562;27.636;2024-03-29T01:48:45;67.15;;;11.18;;
7669;SDS011;3877;42.562;27.636;2024-03-29T01:51:13;53.27;;;11.40;;
7669;SDS011;3877;42.562;27.636;2024-03-29T01:53:43;63.73;;;12.53;;
7669;SDS011;3877;42.562;27.636;2024-03-29T01:56:11;68.37;;;13.17;;
7669;SDS011;3877;42.562;27.636;2024-03-29T01:58:41;57.87;;;11.33;;
7669;SDS011;3877;42.562;27.636;2024-03-29T02:01:10;48.90;;;11.23;;
7669;SDS011;3877;42.562;27.636;2024-03-29T02:03:41;49.57;;;11.67;;
7669;SDS011;3877;42.562;27.636;2024-03-29T02:06:08;65.43;;;13.60;;
7669;SDS011;3877;42.562;27.636;2024-03-29T02:08:38;47.37;;;13.07;;
7669;SDS011;3877;42.562;27.636;2024-03-29T02:11:04;57.57;;;13.23;;
7669;SDS011;3877;42.562;27.636;2024-03-29T02:13:33;62.10;;;12.70;;
7669;SDS011;3877;42.562;27.636;2024-03-29T02:16:01;62.87;;;13.80;;
7669;SDS011;3877;42.562;27.636;2024-03-29T02:18:31;61.40;;;13.27;;
7669;SDS011;3877;42.562;27.636;2024-03-29T02:21:01;53.53;;;13.10;;
7669;SDS011;3877;42.562;27.636;2024-03-29T02:23:29;50.57;;;12.70;;
7669;SDS011;3877;42.562;27.636;2024-03-29T02:26:00;53.97;;;13.37;;
7669;SDS011;3877;42.562;27.636;2024-03-29T02:28:28;68.30;;;17.10;;
7669;SDS011;3877;42.562;27.636;2024-03-29T02:30:57;59.83;;;16.80;;
7669;SDS011;3877;42.562;27.636;2024-03-29T02:33:24;62.97;;;13.77;;
7669;SDS011;3877;42.562;27.636;2024-03-29T02:35:52;81.33;;;12.77;;
7669;SDS011;3877;42.562;27.636;2024-03-29T02:38:19;74.10;;;13.53;;
7669;SDS011;3877;42.562;27.636;2024-03-29T02:40:46;69.50;;;13.27;;
7669;SDS011;3877;42.562;27.636;2024-03-29T02:43:15;75.78;;;13.77;;
7669;SDS011;3877;42.562;27.636;2024-03-29T02:45:42;59.05;;;13.05;;
7669;SDS011;3877;42.562;27.636;2024-03-29T02:48:11;54.90;;;12.17;;
7669;SDS011;3877;42.562;27.636;2024-03-29T02:50:38;58.50;;;13.90;;
7669;SDS011;3877;42.562;27.636;2024-03-29T02:53:04;61.17;;;14.20;;
7669;SDS011;3877;42.562;27.636;2024-03-29T02:55:32;70.78;;;15.35;;
7669;SDS011;3877;42.562;27.636;2024-03-29T02:57:58;86.13;;;17.40;;
7669;SDS011;3877;42.562;27.636;2024-03-29T03:00:27;57.53;;;14.20;;
7669;SDS011;3877;42.562;27.636;2024-03-29T03:02:54;70.43;;;15.00;;
7669;SDS011;3877;42.562;27.636;2024-03-29T03:05:21;65.97;;;12.83;;
7669;SDS011;3877;42.562;27.636;2024-03-29T03:07:47;59.90;;;14.23;;
7669;SDS011;3877;42.562;27.636;2024-03-29T03:10:32;57.00;;;13.23;;
7669;SDS011;3877;42.562;27.636;2024-03-29T03:13:17;61.50;;;12.73;;
7669;SDS011;3877;42.562;27.636;2024-03-29T03:15:46;62.50;;;12.50;;
7669;SDS011;3877;42.562;27.636;2024-03-29T03:18:14;60.60;;;11.53;;
7669;SDS011;3877;42.562;27.636;2024-03-29T03:20:40;55.70;;;11.87;;
7669;SDS011;3877;42.562;27.636;2024-03-29T03:23:08;60.03;;;11.90;;
7669;SDS011;3877;42.562;27.636;2024-03-29T03:25:34;67.23;;;12.77;;
7669;SDS011;3877;42.562;27.636;2024-03-29T03:28:01;60.73;;;12.90;;
7669;SDS011;3877;42.562;27.636;2024-03-29T03:30:28;53.50;;;12.85;;
7669;SDS011;3877;42.562;27.636;2024-03-29T03:32:57;66.03;;;12.20;;
7669;SDS011;3877;42.562;27.636;2024-03-29T03:35:23;70.78;;;12.43;;
7669;SDS011;3877;42.562;27.636;2024-03-29T03:37:51;59.07;;;13.17;;
7669;SDS011;3877;42.562;27.636;2024-03-29T03:40:17;49.77;;;12.00;;
7669;SDS011;3877;42.562;27.636;2024-03-29T03:42:45;66.03;;;13.05;;
7669;SDS011;3877;42.562;27.636;2024-03-29T03:45:11;65.30;;;12.52;;
7669;SDS011;3877;42.562;27.636;2024-03-29T03:47:39;53.65;;;12.13;;
7669;SDS011;3877;42.562;27.636;2024-03-29T03:50:07;57.67;;;12.97;;
7669;SDS011;3877;42.562;27.636;2024-03-29T03:52:35;50.63;;;11.20;;
7669;SDS011;3877;42.562;27.636;2024-03-29T03:55:01;61.67;;;12.53;;
7669;SDS011;3877;42.562;27.636;2024-03-29T03:57:29;57.63;;;12.00;;
7669;SDS011;3877;42.562;27.636;2024-03-29T03:59:55;61.10;;;14.03;;
7669;SDS011;3877;42.562;27.636;2024-03-29T04:02:23;57.15;;;12.10;;
7669;SDS011;3877;42.562;27.636;2024-03-29T04:04:49;69.80;;;12.53;;
7669;SDS011;3877;42.562;27.636;2024-03-29T04:07:18;64.87;;;12.60;;
7669;SDS011;3877;42.562;27.636;2024-03-29T04:09:45;54.47;;;11.17;;
7669;SDS011;3877;42.562;27.636;2024-03-29T04:12:13;63.93;;;12.07;;
7669;SDS011;3877;42.562;27.636;2024-03-29T04:14:40;61.90;;;12.90;;
7669;SDS011;3877;42.562;27.636;2024-03-29T04:17:07;67.37;;;11.87;;
7669;SDS011;3877;42.562;27.636;2024-03-29T04:19:33;58.80;;;13.15;;
7669;SDS011;3877;42.562;27.636;2024-03-29T04:22:01;61.87;;;12.00;;
7669;SDS011;3877;42.562;27.636;2024-03-29T04:24:29;62.50;;;11.17;;
7669;SDS011;3877;42.562;27.636;2024-03-29T04:26:57;54.67;;;12.33;;
7669;SDS011;3877;42.562;27.636;2024-03-29T04:29:23;60.25;;;12.30;;
7669;SDS011;3877;42.562;27.636;2024-03-29T04:31:50;59.43;;;12.67;;
7669;SDS011;3877;42.562;27.636;2024-03-29T04:34:17;60.60;;;12.17;;
7669;SDS011;3877;42.562;27.636;2024-03-29T04:36:44;70.93;;;12.50;;
7669;SDS011;3877;42.562;27.636;2024-03-29T04:39:11;59.38;;;12.23;;
7669;SDS011;3877;42.562;27.636;2024-03-29T04:41:40;56.45;;;11.65;;
7669;SDS011;3877;42.562;27.636;2024-03-29T04:44:08;56.05;;;10.80;;
7669;SDS011;3877;42.562;27.636;2024-03-29T04:46:35;48.13;;;10.65;;
7669;SDS011;3877;42.562;27.636;2024-03-29T04:49:02;59.42;;;10.77;;
7669;SDS011;3877;42.562;27.636;2024-03-29T04:51:30;62.03;;;11.15;;
7669;SDS011;3877;42.562;27.636;2024-03-29T04:53:57;42.40;;;10.25;;
7669;SDS011;3877;42.562;27.636;2024-03-29T04:56:24;47.35;;;9.95;;
7669;SDS011;3877;42.562;27.636;2024-03-29T04:58:55;42.88;;;9.20;;
7669;SDS011;3877;42.562;27.636;2024-03-29T05:01:22;55.38;;;13.05;;
7669;SDS011;3877;42.562;27.636;2024-03-29T05:03:50;71.63;;;22.17;;
7669;SDS011;3877;42.562;27.636;2024-03-29T05:06:19;67.03;;;24.10;;
7669;SDS011;3877;42.562;27.636;2024-03-29T05:08:46;44.70;;;11.15;;
7669;SDS011;3877;42.562;27.636;2024-03-29T05:11:14;56.42;;;13.77;;
7669;SDS011;3877;42.562;27.636;2024-03-29T05:13:41;52.85;;;13.75;;
7669;SDS011;3877;42.562;27.636;2024-03-29T05:16:09;55.63;;;14.18;;
7669;SDS011;3877;42.562;27.636;2024-03-29T05:18:37;54.47;;;12.45;;
7669;SDS011;3877;42.562;27.636;2024-03-29T05:21:04;54.38;;;10.98;;
7669;SDS011;3877;42.562;27.636;2024-03-29T05:23:32;61.03;;;15.93;;
7669;SDS011;3877;42.562;27.636;2024-03-29T05:26:00;49.75;;;15.35;;
7669;SDS011;3877;42.562;27.636;2024-03-29T05:28:28;52.80;;;11.20;;
7669;SDS011;3877;42.562;27.636;2024-03-29T05:30:55;52.78;;;10.75;;
7669;SDS011;3877;42.562;27.636;2024-03-29T05:33:24;53.15;;;10.10;;
7669;SDS011;3877;42.562;27.636;2024-03-29T05:35:51;45.90;;;8.50;;
7669;SDS011;3877;42.562;27.636;2024-03-29T05:38:19;47.65;;;9.85;;
7669;SDS011;3877;42.562;27.636;2024-03-29T05:40:46;55.42;;;10.73;;
7669;SDS011;3877;42.562;27.636;2024-03-29T05:43:14;49.83;;;10.15;;
7669;SDS011;3877;42.562;27.636;2024-03-29T05:45:41;43.65;;;10.23;;
7669;SDS011;3877;42.562;27.636;2024-03-29T05:48:09;58.17;;;10.73;;
7669;SDS011;3877;42.562;27.636;2024-03-29T05:50:38;54.45;;;11.40;;
7669;SDS011;3877;42.562;27.636;2024-03-29T05:53:05;53.10;;;10.13;;
7669;SDS011;3877;42.562;27.636;2024-03-29T05:55:33;54.25;;;10.88;;
7669;SDS011;3877;42.562;27.636;2024-03-29T05:58:00;56.40;;;10.48;;
7669;SDS011;3877;42.562;27.636;2024-03-29T06:00:28;53.78;;;10.32;;
7669;SDS011;3877;42.562;27.636;2024-03-29T06:02:55;61.33;;;11.25;;
7669;SDS011;3877;42.562;27.636;2024-03-29T06:05:23;52.70;;;10.82;;
7669;SDS011;3877;42.562;27.636;2024-03-29T06:07:52;53.70;;;11.25;;
7669;SDS011;3877;42.562;27.636;2024-03-29T06:10:19;63.95;;;11.25;;
7669;SDS011;3877;42.562;27.636;2024-03-29T06:12:47;54.97;;;10.25;;
7669;SDS011;3877;42.562;27.636;2024-03-29T06:15:14;63.85;;;11.68;;
7669;SDS011;3877;42.562;27.636;2024-03-29T06:17:59;57.53;;;10.70;;
7669;SDS011;3877;42.562;27.636;2024-03-29T06:20:26;59.30;;;10.82;;
7669;SDS011;3877;42.562;27.636;2024-03-29T06:22:55;47.90;;;10.02;;
7669;SDS011;3877;42.562;27.636;2024-03-29T06:25:23;60.55;;;11.48;;
7669;SDS011;3877;42.562;27.636;2024-03-29T06:27:50;52.50;;;10.43;;
7669;SDS011;3877;42.562;27.636;2024-03-29T06:30:17;54.45;;;12.02;;
7669;SDS011;3877;42.562;27.636;2024-03-29T06:32:45;42.78;;;11.00;;
7669;SDS011;3877;42.562;27.636;2024-03-29T06:35:12;57.25;;;11.40;;
7669;SDS011;3877;42.562;27.636;2024-03-29T06:37:40;66.82;;;12.68;;
7669;SDS011;3877;42.562;27.636;2024-03-29T06:40:10;59.17;;;12.10;;
7669;SDS011;3877;42.562;27.636;2024-03-29T06:42:38;56.65;;;11.95;;
7669;SDS011;3877;42.562;27.636;2024-03-29T06:45:05;60.90;;;12.02;;
7669;SDS011;3877;42.562;27.636;2024-03-29T06:47:34;62.15;;;11.75;;
7669;SDS011;3877;42.562;27.636;2024-03-29T06:50:01;66.57;;;11.75;;
7669;SDS011;3877;42.562;27.636;2024-03-29T06:52:29;47.95;;;10.30;;
7669;SDS011;3877;42.562;27.636;2024-03-29T06:54:56;60.90;;;10.48;;
7669;SDS011;3877;42.562;27.636;2024-03-29T06:57:25;60.50;;;11.02;;
7669;SDS011;3877;42.562;27.636;2024-03-29T06:59:56;47.22;;;10.73;;
7669;SDS011;3877;42.562;27.636;2024-03-29T07:02:24;51.58;;;10.40;;
7669;SDS011;3877;42.562;27.636;2024-03-29T07:04:51;61.70;;;10.60;;
7669;SDS011;3877;42.562;27.636;2024-03-29T07:07:19;51.75;;;9.98;;
7669;SDS011;3877;42.562;27.636;2024-03-29T07:09:46;55.75;;;10.05;;
7669;SDS011;3877;42.562;27.636;2024-03-29T07:12:13;62.95;;;11.60;;
7669;SDS011;3877;42.562;27.636;2024-03-29T07:14:43;62.67;;;11.32;;
7669;SDS011;3877;42.562;27.636;2024-03-29T07:17:11;48.30;;;11.05;;
7669;SDS011;3877;42.562;27.636;2024-03-29T07:19:38;47.92;;;10.18;;
7669;SDS011;3877;42.562;27.636;2024-03-29T07:22:05;52.15;;;10.98;;
7669;SDS011;3877;42.562;27.636;2024-03-29T07:24:33;61.63;;;10.50;;
7669;SDS011;3877;42.562;27.636;2024-03-29T07:27:00;64.25;;;10.80;;
7669;SDS011;3877;42.562;27.636;2024-03-29T07:29:28;71.30;;;11.20;;
7669;SDS011;3877;42.562;27.636;2024-03-29T07:32:00;65.30;;;11.82;;
7669;SDS011;3877;42.562;27.636;2024-03-29T07:34:28;53.28;;;10.75;;
7669;SDS011;3877;42.562;27.636;2024-03-29T07:36:55;68.60;;;12.23;;
7669;SDS011;3877;42.562;27.636;2024-03-29T07:39:22;57.22;;;11.73;;
7669;SDS011;3877;42.562;27.636;2024-03-29T07:41:50;50.28;;;10.40;;
7669;SDS011;3877;42.562;27.636;2024-03-29T07:44:17;49.67;;;10.98;;
7669;SDS011;3877;42.562;27.636;2024-03-29T07:46:45;62.88;;;11.20;;
7669;SDS011;3877;42.562;27.636;2024-03-29T07:49:14;53.30;;;10.35;;
7669;SDS011;3877;42.562;27.636;2024-03-29T07:51:46;66.55;;;11.18;;
7669;SDS011;3877;42.562;27.636;2024-03-29T07:54:15;58.03;;;11.57;;
7669;SDS011;3877;42.562;27.636;2024-03-29T07:56:42;63.05;;;12.07;;
7669;SDS011;3877;42.562;27.636;2024-03-29T07:59:09;57.72;;;12.85;;
7669;SDS011;3877;42.562;27.636;2024-03-29T08:01:37;71.80;;;12.45;;
7669;SDS011;3877;42.562;27.636;2024-03-29T08:04:06;51.08;;;11.52;;
7669;SDS011;3877;42.562;27.636;2024-03-29T08:06:35;58.13;;;11.63;;
7669;SDS011;3877;42.562;27.636;2024-03-29T08:09:02;59.47;;;12.20;;
7669;SDS011;3877;42.562;27.636;2024-03-29T08:11:31;50.20;;;11.65;;
7669;SDS011;3877;42.562;27.636;2024-03-29T08:13:58;65.28;;;12.20;;
7669;SDS011;3877;42.562;27.636;2024-03-29T08:16:26;56.97;;;11.07;;
7669;SDS011;3877;42.562;27.636;2024-03-29T08:18:54;68.88;;;11.50;;
7669;SDS011;3877;42.562;27.636;2024-03-29T08:21:21;69.50;;;22.95;;
7669;SDS011;3877;42.562;27.636;2024-03-29T08:23:53;51.90;;;10.02;;
7669;SDS011;3877;42.562;27.636;2024-03-29T08:26:21;49.58;;;10.48;;
7669;SDS011;3877;42.562;27.636;2024-03-29T08:28:50;43.92;;;9.15;;
7669;SDS011;3877;42.562;27.636;2024-03-29T08:31:17;59.33;;;11.35;;
7669;SDS011;3877;42.562;27.636;2024-03-29T08:33:44;64.93;;;10.75;;
7669;SDS011;3877;42.562;27.636;2024-03-29T08:36:12;48.05;;;9.68;;
7669;SDS011;3877;42.562;27.636;2024-03-29T08:38:40;69.85;;;11.90;;
7669;SDS011;3877;42.562;27.636;2024-03-29T08:41:11;52.10;;;10.27;;
7669;SDS011;3877;42.562;27.636;2024-03-29T08:43:39;41.78;;;9.23;;
7669;SDS011;3877;42.562;27.636;2024-03-29T08:46:06;43.75;;;8.93;;
7669;SDS011;3877;42.562;27.636;2024-03-29T08:48:34;55.08;;;10.07;;
7669;SDS011;3877;42.562;27.636;2024-03-29T08:51:05;42.05;;;9.18;;
7669;SDS011;3877;42.562;27.636;2024-03-29T08:53:32;52.58;;;9.20;;
7669;SDS011;3877;42.562;27.636;2024-03-29T08:56:00;54.60;;;9.98;;
7669;SDS011;3877;42.562;27.636;2024-03-29T08:58:29;54.10;;;9.82;;
7669;SDS011;3877;42.562;27.636;2024-03-29T09:00:56;64.10;;;10.05;;
7669;SDS011;3877;42.562;27.636;2024-03-29T09:03:25;52.38;;;9.60;;
7669;SDS011;3877;42.562;27.636;2024-03-29T09:05:52;59.25;;;10.55;;
7669;SDS011;3877;42.562;27.636;2024-03-29T09:08:20;48.05;;;7.82;;
7669;SDS011;3877;42.562;27.636;2024-03-29T09:10:47;43.70;;;8.63;;
7669;SDS011;3877;42.562;27.636;2024-03-29T09:13:15;42.60;;;8.45;;
7669;SDS011;3877;42.562;27.636;2024-03-29T09:15:44;42.53;;;9.07;;
7669;SDS011;3877;42.562;27.636;2024-03-29T09:18:11;32.53;;;7.45;;
7669;SDS011;3877;42.562;27.636;2024-03-29T09:20:55;48.20;;;8.65;;
7669;SDS011;3877;42.562;27.636;2024-03-29T09:23:23;36.58;;;7.50;;
7669;SDS011;3877;42.562;27.636;2024-03-29T09:25:50;40.58;;;8.48;;
7669;SDS011;3877;42.562;27.636;2024-03-29T09:28:18;40.83;;;7.75;;
7669;SDS011;3877;42.562;27.636;2024-03-29T09:30:48;46.72;;;8.35;;
7669;SDS011;3877;42.562;27.636;2024-03-29T09:33:16;39.83;;;7.50;;
7669;SDS011;3877;42.562;27.636;2024-03-29T09:35:43;37.10;;;7.97;;
7669;SDS011;3877;42.562;27.636;2024-03-29T09:38:11;38.88;;;7.60;;
7669;SDS011;3877;42.562;27.636;2024-03-29T09:40:38;36.60;;;7.30;;
7669;SDS011;3877;42.562;27.636;2024-03-29T09:43:05;33.17;;;6.65;;
7669;SDS011;3877;42.562;27.636;2024-03-29T09:45:35;40.05;;;6.95;;
7669;SDS011;3877;42.562;27.636;2024-03-29T09:48:05;27.70;;;6.10;;
7669;SDS011;3877;42.562;27.636;2024-03-29T09:50:34;38.88;;;6.63;;
7669;SDS011;3877;42.562;27.636;2024-03-29T09:53:03;22.67;;;5.93;;
7669;SDS011;3877;42.562;27.636;2024-03-29T09:55:33;28.77;;;6.10;;
7669;SDS011;3877;42.562;27.636;2024-03-29T09:58:02;25.02;;;5.28;;
7669;SDS011;3877;42.562;27.636;2024-03-29T10:00:35;22.95;;;5.20;;
7669;SDS011;3877;42.562;27.636;2024-03-29T10:03:05;32.42;;;5.07;;
7669;SDS011;3877;42.562;27.636;2024-03-29T10:05:34;26.80;;;5.63;;
7669;SDS011;3877;42.562;27.636;2024-03-29T10:08:03;31.50;;;5.75;;
7669;SDS011;3877;42.562;27.636;2024-03-29T10:10:32;27.75;;;4.97;;
7669;SDS011;3877;42.562;27.636;2024-03-29T10:13:00;21.67;;;4.40;;
7669;SDS011;3877;42.562;27.636;2024-03-29T10:15:29;25.10;;;4.65;;
7669;SDS011;3877;42.562;27.636;2024-03-29T10:17:58;23.10;;;4.68;;
7669;SDS011;3877;42.562;27.636;2024-03-29T10:20:27;19.05;;;4.80;;
7669;SDS011;3877;42.562;27.636;2024-03-29T10:22:55;20.75;;;4.70;;
7669;SDS011;3877;42.562;27.636;2024-03-29T10:25:28;23.33;;;4.60;;
7669;SDS011;3877;42.562;27.636;2024-03-29T10:27:59;17.42;;;4.30;;
7669;SDS011;3877;42.562;27.636;2024-03-29T10:30:28;23.52;;;3.97;;
7669;SDS011;3877;42.562;27.636;2024-03-29T10:32:56;15.25;;;4.63;;
7669;SDS011;3877;42.562;27.636;2024-03-29T10:35:24;20.05;;;4.13;;
7669;SDS011;3877;42.562;27.636;2024-03-29T10:37:54;19.55;;;4.20;;
7669;SDS011;3877;42.562;27.636;2024-03-29T10:40:21;24.35;;;4.57;;
7669;SDS011;3877;42.562;27.636;2024-03-29T10:42:50;20.73;;;4.60;;
7669;SDS011;3877;42.562;27.636;2024-03-29T10:45:19;24.92;;;4.35;;
7669;SDS011;3877;42.562;27.636;2024-03-29T10:47:49;12.70;;;3.65;;
7669;SDS011;3877;42.562;27.636;2024-03-29T10:50:19;12.10;;;3.63;;
7669;SDS011;3877;42.562;27.636;2024-03-29T10:52:49;39.22;;;5.45;;
7669;SDS011;3877;42.562;27.636;2024-03-29T10:55:17;22.30;;;4.25;;
7669;SDS011;3877;42.562;27.636;2024-03-29T10:57:46;21.77;;;3.95;;
7669;SDS011;3877;42.562;27.636;2024-03-29T11:00:18;32.83;;;5.05;;
7669;SDS011;3877;42.562;27.636;2024-03-29T11:02:48;18.17;;;4.15;;
7669;SDS011;3877;42.562;27.636;2024-03-29T11:05:17;21.63;;;4.47;;
7669;SDS011;3877;42.562;27.636;2024-03-29T11:07:45;15.20;;;3.42;;
7669;SDS011;3877;42.562;27.636;2024-03-29T11:10:18;23.80;;;7.75;;
7669;SDS011;3877;42.562;27.636;2024-03-29T11:12:56;19.48;;;4.65;;
7669;SDS011;3877;42.562;27.636;2024-03-29T11:15:29;19.95;;;7.00;;
7669;SDS011;3877;42.562;27.636;2024-03-29T11:17:57;15.57;;;4.10;;
7669;SDS011;3877;42.562;27.636;2024-03-29T11:20:25;19.63;;;4.07;;
7669;SDS011;3877;42.562;27.636;2024-03-29T11:23:02;18.17;;;5.07;;
7669;SDS011;3877;42.562;27.636;2024-03-29T11:25:42;12.00;;;4.00;;
7669;SDS011;3877;42.562;27.636;2024-03-29T11:28:11;13.10;;;3.55;;
7669;SDS011;3877;42.562;27.636;2024-03-29T11:30:41;13.70;;;3.00;;
7669;SDS011;3877;42.562;27.636;2024-03-29T11:33:28;12.57;;;3.10;;
7669;SDS011;3877;42.562;27.636;2024-03-29T11:35:57;14.73;;;2.78;;
7669;SDS011;3877;42.562;27.636;2024-03-29T11:38:31;9.15;;;3.00;;
7669;SDS011;3877;42.562;27.636;2024-03-29T11:41:05;11.93;;;3.90;;
7669;SDS011;3877;42.562;27.636;2024-03-29T11:43:34;33.58;;;18.40;;
7669;SDS011;3877;42.562;27.636;2024-03-29T11:46:04;14.20;;;3.55;;
7669;SDS011;3877;42.562;27.636;2024-03-29T11:48:33;13.27;;;3.45;;
7669;SDS011;3877;42.562;27.636;2024-03-29T11:51:01;16.35;;;3.70;;
7669;SDS011;3877;42.562;27.636;2024-03-29T11:53:29;13.48;;;3.90;;
7669;SDS011;3877;42.562;27.636;2024-03-29T11:55:57;10.18;;;3.00;;
7669;SDS011;3877;42.562;27.636;2024-03-29T11:58:26;19.98;;;2.65;;
7669;SDS011;3877;42.562;27.636;2024-03-29T12:00:55;15.80;;;4.07;;
7669;SDS011;3877;42.562;27.636;2024-03-29T12:03:24;14.32;;;3.45;;
7669;SDS011;3877;42.562;27.636;2024-03-29T12:05:52;12.70;;;3.42;;
7669;SDS011;3877;42.562;27.636;2024-03-29T12:08:23;10.75;;;2.92;;
7669;SDS011;3877;42.562;27.636;2024-03-29T12:10:51;11.75;;;3.97;;
7669;SDS011;3877;42.562;27.636;2024-03-29T12:13:19;14.30;;;3.40;;
7669;SDS011;3877;42.562;27.636;2024-03-29T12:15:47;11.07;;;3.53;;
7669;SDS011;3877;42.562;27.636;2024-03-29T12:18:15;13.27;;;3.55;;
7669;SDS011;3877;42.562;27.636;2024-03-29T12:20:43;13.20;;;3.35;;
7669;SDS011;3877;42.562;27.636;2024-03-29T12:23:15;8.27;;;2.30;;
7669;SDS011;3877;42.562;27.636;2024-03-29T12:25:43;12.15;;;3.45;;
7669;SDS011;3877;42.562;27.636;2024-03-29T12:28:12;13.85;;;3.03;;
7669;SDS011;3877;42.562;27.636;2024-03-29T12:30:41;7.72;;;2.60;;
7669;SDS011;3877;42.562;27.636;2024-03-29T12:33:13;7.93;;;2.83;;
7669;SDS011;3877;42.562;27.636;2024-03-29T12:35:41;9.52;;;3.40;;
7669;SDS011;3877;42.562;27.636;2024-03-29T12:38:11;8.00;;;2.63;;
7669;SDS011;3877;42.562;27.636;2024-03-29T12:40:40;7.53;;;2.53;;
7669;SDS011;3877;42.562;27.636;2024-03-29T12:43:09;7.97;;;3.00;;
7669;SDS011;3877;42.562;27.636;2024-03-29T12:45:38;8.60;;;2.67;;
7669;SDS011;3877;42.562;27.636;2024-03-29T12:48:09;12.30;;;3.40;;
7669;SDS011;3877;42.562;27.636;2024-03-29T12:50:40;7.65;;;3.05;;
7669;SDS011;3877;42.562;27.636;2024-03-29T12:53:09;9.60;;;2.97;;
7669;SDS011;3877;42.562;27.636;2024-03-29T12:55:39;11.35;;;2.88;;
7669;SDS011;3877;42.562;27.636;2024-03-29T12:58:09;10.98;;;2.60;;
7669;SDS011;3877;42.562;27.636;2024-03-29T13:00:37;7.53;;;2.60;;
7669;SDS011;3877;42.562;27.636;2024-03-29T13:03:04;9.57;;;2.72;;
7669;SDS011;3877;42.562;27.636;2024-03-29T13:05:34;9.90;;;2.90;;
7669;SDS011;3877;42.562;27.636;2024-03-29T13:08:05;12.13;;;3.17;;
7669;SDS011;3877;42.562;27.636;2024-03-29T13:10:35;10.48;;;3.00;;
7669;SDS011;3877;42.562;27.636;2024-03-29T13:13:04;20.25;;;3.83;;
7669;SDS011;3877;42.562;27.636;2024-03-29T13:15:33;10.27;;;3.50;;
7669;SDS011;3877;42.562;27.636;2024-03-29T13:18:01;10.75;;;2.80;;
7669;SDS011;3877;42.562;27.636;2024-03-29T13:20:30;12.13;;;3.67;;
7669;SDS011;3877;42.562;27.636;2024-03-29T13:23:00;10.95;;;2.90;;
7669;SDS011;3877;42.562;27.636;2024-03-29T13:25:28;12.52;;;3.55;;
7669;SDS011;3877;42.562;27.636;2024-03-29T13:27:55;17.15;;;3.72;;
7669;SDS011;3877;42.562;27.636;2024-03-29T13:30:23;12.57;;;2.97;;
7669;SDS011;3877;42.562;27.636;2024-03-29T13:32:52;13.05;;;2.90;;
7669;SDS011;3877;42.562;27.636;2024-03-29T13:35:20;11.63;;;3.45;;
7669;SDS011;3877;42.562;27.636;2024-03-29T13:37:49;14.43;;;3.30;;
7669;SDS011;3877;42.562;27.636;2024-03-29T13:40:20;9.65;;;2.72;;
7669;SDS011;3877;42.562;27.636;2024-03-29T13:42:50;15.23;;;3.25;;
7669;SDS011;3877;42.562;27.636;2024-03-29T13:45:17;24.02;;;4.28;;
7669;SDS011;3877;42.562;27.636;2024-03-29T13:47:45;12.55;;;3.10;;
7669;SDS011;3877;42.562;27.636;2024-03-29T13:50:13;13.07;;;3.67;;
7669;SDS011;3877;42.562;27.636;2024-03-29T13:52:41;15.77;;;3.38;;
7669;SDS011;3877;42.562;27.636;2024-03-29T13:55:09;17.63;;;3.55;;
7669;SDS011;3877;42.562;27.636;2024-03-29T13:57:39;14.30;;;2.78;;
7669;SDS011;3877;42.562;27.636;2024-03-29T14:00:09;13.48;;;2.80;;
7669;SDS011;3877;42.562;27.636;2024-03-29T14:02:40;10.90;;;3.28;;
7669;SDS011;3877;42.562;27.636;2024-03-29T14:05:07;8.88;;;2.47;;
7669;SDS011;3877;42.562;27.636;2024-03-29T14:07:37;16.00;;;3.10;;
7669;SDS011;3877;42.562;27.636;2024-03-29T14:10:05;10.70;;;3.22;;
7669;SDS011;3877;42.562;27.636;2024-03-29T14:12:33;8.32;;;2.80;;
7669;SDS011;3877;42.562;27.636;2024-03-29T14:15:02;12.13;;;3.13;;
7669;SDS011;3877;42.562;27.636;2024-03-29T14:17:32;11.13;;;2.53;;
7669;SDS011;3877;42.562;27.636;2024-03-29T14:19:59;7.65;;;3.20;;
7669;SDS011;3877;42.562;27.636;2024-03-29T14:22:26;11.07;;;2.45;;
7669;SDS011;3877;42.562;27.636;2024-03-29T14:24:56;10.27;;;2.55;;
7669;SDS011;3877;42.562;27.636;2024-03-29T14:27:24;10.25;;;2.40;;
7669;SDS011;3877;42.562;27.636;2024-03-29T14:29:52;12.05;;;2.75;;
7669;SDS011;3877;42.562;27.636;2024-03-29T14:32:21;11.75;;;3.00;;
7669;SDS011;3877;42.562;27.636;2024-03-29T14:34:49;11.68;;;3.55;;
7669;SDS011;3877;42.562;27.636;2024-03-29T14:37:16;10.38;;;3.03;;
7669;SDS011;3877;42.562;27.636;2024-03-29T14:39:44;15.68;;;3.22;;
7669;SDS011;3877;42.562;27.636;2024-03-29T14:42:11;13.68;;;2.88;;
7669;SDS011;3877;42.562;27.636;2024-03-29T14:44:42;11.23;;;3.15;;
7669;SDS011;3877;42.562;27.636;2024-03-29T14:47:10;12.57;;;3.05;;